Time;durP1;ratioP1;P1;durP2;ratioP2;P2;SDS_P1;SDS_P2;PMS_P1;PMS_P2;Temp;Humidity;BMP_temperature;BMP_pressure;BME280_temperature;BME280_humidity;BME280_pressure;Samples;Min_cycle;Max_cycle;Signal;HPM_P1;HPM_P2
2022/09/30 00:01:39;;;;;;;12.13;10.85;;;9.90;99.90;;;;;;5051645;28;20017;-52
2022/09/30 00:04:07;;;;;;;16.38;10.80;;;10.00;99.90;;;;;;5057543;28;20037;-52
2022/09/30 00:06:35;;;;;;;12.52;11.27;;;10.00;99.90;;;;;;5071723;28;20082;-52
2022/09/30 00:09:02;;;;;;;12.52;11.27;;;10.00;99.90;;;;;;5070238;28;20072;-51
2022/09/30 00:11:31;;;;;;;13.00;11.68;;;10.00;99.90;;;;;;5070503;28;20025;-55
2022/09/30 00:13:57;;;;;;;14.00;12.57;;;9.90;99.90;;;;;;5071526;28;20020;-53
2022/09/30 00:16:25;;;;;;;13.77;12.25;;;9.80;99.90;;;;;;5071673;28;20128;-52
2022/09/30 00:18:54;;;;;;;17.95;14.20;;;9.80;99.90;;;;;;5064783;28;20017;-53
2022/09/30 00:21:19;;;;;;;13.95;12.20;;;9.80;99.90;;;;;;5051877;28;20582;-52
2022/09/30 00:23:45;;;;;;;12.90;11.65;;;9.90;99.90;;;;;;5057742;28;20040;-52
2022/09/30 00:26:13;;;;;;;13.98;12.45;;;9.80;99.90;;;;;;5058257;28;20021;-54
2022/09/30 00:28:40;;;;;;;16.63;12.40;;;9.80;99.90;;;;;;5058291;28;20025;-53
2022/09/30 00:31:09;;;;;;;13.60;12.23;;;9.70;99.90;;;;;;5057872;28;20036;-53
2022/09/30 00:33:35;;;;;;;14.77;12.60;;;9.70;99.90;;;;;;5062685;28;20513;-53
2022/09/30 00:36:02;;;;;;;14.18;12.40;;;9.70;99.90;;;;;;5076544;28;20044;-54
2022/09/30 00:38:28;;;;;;;14.70;12.10;;;9.80;99.90;;;;;;5078110;28;20028;-54
2022/09/30 00:40:55;;;;;;;13.38;11.65;;;9.80;99.90;;;;;;5077756;28;20108;-52
2022/09/30 00:43:42;;;;;;;12.52;11.23;;;9.80;99.90;;;;;;5078064;28;20040;-50
2022/09/30 00:46:20;;;;;;;12.73;11.43;;;9.80;99.90;;;;;;5077892;28;20368;-52
2022/09/30 00:48:52;;;;;;;14.20;12.10;;;9.80;99.90;;;;;;5067992;28;20063;-53
2022/09/30 00:51:24;;;;;;;13.88;12.43;;;9.80;99.90;;;;;;5057856;28;20405;-54
2022/09/30 00:53:54;;;;;;;14.60;13.07;;;9.80;99.90;;;;;;5057712;28;20033;-51
2022/09/30 00:56:24;;;;;;;13.77;11.98;;;9.70;99.90;;;;;;5057812;28;20083;-52
2022/09/30 00:58:55;;;;;;;12.95;11.65;;;9.80;99.90;;;;;;5057680;28;20032;-52
2022/09/30 01:01:22;;;;;;;11.93;10.35;;;9.70;99.90;;;;;;5058071;28;20071;-53
2022/09/30 01:03:50;;;;;;;11.48;9.13;;;9.70;99.90;;;;;;5057680;28;20020;-52
2022/09/30 01:06:18;;;;;;;11.20;10.07;;;9.70;99.90;;;;;;5057771;28;20036;-54
2022/09/30 01:08:45;;;;;;;11.30;10.10;;;9.60;99.90;;;;;;5066444;28;20124;-52
2022/09/30 01:11:11;;;;;;;20.60;9.95;;;9.60;99.90;;;;;;5077694;28;20028;-51
2022/09/30 01:13:39;;;;;;;13.52;11.18;;;9.60;99.90;;;;;;5077837;28;20028;-51
2022/09/30 01:16:22;;;;;;;11.52;10.25;;;9.60;99.90;;;;;;5077754;28;20051;-52
2022/09/30 01:19:21;;;;;;;12.50;10.75;;;9.60;99.90;;;;;;5077457;28;20028;-54
2022/09/30 01:22:02;;;;;;;12.07;10.75;;;9.60;99.90;;;;;;5077632;28;20017;-54
2022/09/30 01:24:42;;;;;;;11.15;10.07;;;9.60;99.90;;;;;;5077488;28;20133;-52
2022/09/30 01:27:44;;;;;;;11.95;10.75;;;9.60;99.90;;;;;;5077754;28;20044;-53
2022/09/30 01:30:33;;;;;;;12.18;10.57;;;9.60;99.90;;;;;;5077817;28;20767;-53
2022/09/30 01:33:31;;;;;;;15.55;9.95;;;9.60;99.90;;;;;;5075648;28;20593;-51
2022/09/30 01:36:15;;;;;;;14.98;10.10;;;9.70;99.90;;;;;;5074225;28;20467;-52
2022/09/30 01:38:53;;;;;;;11.73;10.40;;;9.70;99.90;;;;;;5061318;28;20040;-52
2022/09/30 01:41:41;;;;;;;16.40;11.27;;;9.70;99.90;;;;;;5054381;28;20025;-51
2022/09/30 01:44:36;;;;;;;16.10;11.00;;;9.70;99.90;;;;;;5054258;28;20049;-54
2022/09/30 01:47:08;;;;;;;16.77;11.45;;;9.60;99.90;;;;;;5053921;28;20024;-53
2022/09/30 01:49:44;;;;;;;13.15;11.85;;;9.70;99.90;;;;;;5054052;28;20033;-53
2022/09/30 01:52:20;;;;;;;13.95;12.55;;;9.70;99.90;;;;;;5056290;28;20079;-51
2022/09/30 01:54:57;;;;;;;16.67;13.18;;;9.60;99.90;;;;;;5073680;28;20025;-54
2022/09/30 01:57:44;;;;;;;14.88;13.35;;;9.70;99.90;;;;;;5074163;28;20395;-51
2022/09/30 02:00:11;;;;;;;23.25;13.20;;;9.70;99.90;;;;;;5074207;28;20039;-53
2022/09/30 02:02:47;;;;;;;14.85;13.13;;;9.70;99.90;;;;;;5072212;28;20107;-53
2022/09/30 02:05:22;;;;;;;15.77;12.43;;;9.70;99.90;;;;;;5073859;28;20023;-51
2022/09/30 02:07:57;;;;;;;15.70;13.48;;;9.70;99.90;;;;;;5073709;28;20391;-54
2022/09/30 02:10:31;;;;;;;17.98;15.68;;;9.80;99.90;;;;;;5073942;28;20036;-53
2022/09/30 02:13:11;;;;;;;18.15;16.02;;;9.70;99.90;;;;;;5073645;28;20472;-54
2022/09/30 02:15:42;;;;;;;19.35;16.38;;;9.70;99.90;;;;;;5073685;28;20086;-51
2022/09/30 02:18:20;;;;;;;18.20;14.60;;;9.70;99.90;;;;;;5071485;28;20113;-51
2022/09/30 02:20:51;;;;;;;20.92;16.88;;;9.70;99.90;;;;;;5073386;28;20024;-52
2022/09/30 02:23:27;;;;;;;28.05;15.38;;;9.70;99.90;;;;;;5055416;28;20033;-53
2022/09/30 02:26:19;;;;;;;18.48;15.90;;;9.70;99.90;;;;;;5053294;28;20357;-55
2022/09/30 02:28:51;;;;;;;16.88;15.07;;;9.70;99.90;;;;;;5051877;28;20025;-52
2022/09/30 02:31:20;;;;;;;18.63;15.80;;;9.60;99.90;;;;;;5052024;28;20101;-55
2022/09/30 02:33:53;;;;;;;17.75;15.20;;;9.70;99.90;;;;;;5053225;28;20048;-55
2022/09/30 02:36:36;;;;;;;17.92;14.85;;;9.70;99.90;;;;;;5053088;28;20139;-52
2022/09/30 02:39:06;;;;;;;18.08;15.98;;;9.60;99.90;;;;;;5052927;28;20033;-54
2022/09/30 02:41:40;;;;;;;16.63;14.80;;;9.60;99.90;;;;;;5053291;28;20426;-52
2022/09/30 02:44:05;;;;;;;;;;;9.70;99.90;;;;;;5053494;28;20028;-54
2022/09/30 02:46:53;;;;;;;21.50;17.55;;;9.60;99.90;;;;;;5051657;28;19905;-52
2022/09/30 02:49:22;;;;;;;19.92;17.17;;;9.50;99.90;;;;;;5053059;28;20151;-51
2022/09/30 02:52:06;;;;;;;19.10;15.68;;;9.50;99.90;;;;;;5062296;28;20028;-51
2022/09/30 02:54:41;;;;;;;21.63;17.33;;;9.50;99.90;;;;;;5072911;28;20048;-51
2022/09/30 02:57:14;;;;;;;23.15;16.05;;;9.50;99.90;;;;;;5072799;28;20024;-52
2022/09/30 02:59:40;;;;;;;22.90;18.00;;;9.60;99.90;;;;;;5072827;28;20036;-56
2022/09/30 03:02:06;;;;;;;21.10;16.55;;;9.60;99.90;;;;;;5072681;28;20065;-51
2022/09/30 03:04:34;;;;;;;21.48;16.77;;;9.60;99.90;;;;;;5072722;28;20394;-52
2022/09/30 03:07:00;;;;;;;21.17;16.20;;;9.70;99.90;;;;;;5070706;28;20174;-53
2022/09/30 03:09:26;;;;;;;20.50;17.17;;;9.70;99.90;;;;;;5072674;28;20025;-52
2022/09/30 03:12:07;;;;;;;18.55;15.45;;;9.60;99.90;;;;;;5072260;28;20043;-52
2022/09/30 03:14:54;;;;;;;21.00;17.13;;;9.60;99.90;;;;;;5072339;28;20542;-52
2022/09/30 03:17:23;;;;;;;23.30;17.80;;;9.60;99.90;;;;;;5072477;28;20024;-52
2022/09/30 03:20:00;;;;;;;19.50;16.40;;;9.60;99.90;;;;;;5072158;28;20495;-51
2022/09/30 03:22:37;;;;;;;21.10;17.05;;;9.60;99.90;;;;;;5052838;28;20124;-52
2022/09/30 03:25:24;;;;;;;19.85;16.90;;;9.60;99.90;;;;;;5052172;28;20025;-54
2022/09/30 03:28:15;;;;;;;19.58;16.58;;;9.60;99.90;;;;;;5052191;28;20029;-53
2022/09/30 03:30:54;;;;;;;26.33;19.08;;;9.70;99.90;;;;;;5052346;28;20383;-51
2022/09/30 03:33:46;;;;;;;21.33;17.40;;;9.60;99.90;;;;;;5052423;28;20059;-53
2022/09/30 03:36:15;;;;;;;23.52;17.48;;;9.60;99.90;;;;;;5052105;28;20013;-51
2022/09/30 03:38:52;;;;;;;23.35;18.83;;;9.60;99.90;;;;;;5050734;28;20496;-55
2022/09/30 03:41:26;;;;;;;20.90;17.10;;;9.60;99.90;;;;;;5052017;28;20032;-52
2022/09/30 03:44:18;;;;;;;22.75;17.85;;;9.50;99.90;;;;;;5051773;28;20028;-51
2022/09/30 03:47:07;;;;;;;24.00;18.10;;;9.60;99.90;;;;;;5051227;28;20475;-53
2022/09/30 03:49:41;;;;;;;23.23;18.42;;;9.60;99.90;;;;;;5051920;28;20439;-51
2022/09/30 03:52:10;;;;;;;22.88;18.75;;;9.60;99.90;;;;;;5053668;28;20032;-55
2022/09/30 03:54:49;;;;;;;26.15;18.90;;;9.60;99.90;;;;;;5052036;28;20064;-52
2022/09/30 03:57:15;;;;;;;23.30;18.70;;;9.70;99.90;;;;;;5051311;28;20029;-52
2022/09/30 03:59:40;;;;;;;27.88;19.52;;;9.70;99.90;;;;;;5050668;28;20040;-51
2022/09/30 04:02:11;;;;;;;23.90;18.80;;;9.60;99.90;;;;;;5050840;28;20025;-52
2022/09/30 04:04:46;;;;;;;25.85;19.30;;;9.70;99.90;;;;;;5051053;28;20353;-52
2022/09/30 04:07:12;;;;;;;29.80;22.63;;;9.60;99.90;;;;;;5069239;28;20044;-52
2022/09/30 04:09:38;;;;;;;30.20;20.92;;;9.60;99.90;;;;;;5070805;28;20383;-52
2022/09/30 04:12:04;;;;;;;26.38;22.05;;;9.50;99.90;;;;;;5070679;28;20032;-51
2022/09/30 04:14:30;;;;;;;25.02;21.40;;;9.60;99.90;;;;;;5070816;28;20078;-50
2022/09/30 04:16:56;;;;;;;25.65;19.50;;;9.50;99.90;;;;;;5071290;28;20403;-56
2022/09/30 04:19:21;;;;;;;30.85;22.67;;;9.60;99.90;;;;;;5071464;28;20082;-54
2022/09/30 04:21:49;;;;;;;25.83;20.05;;;9.60;99.90;;;;;;5053471;28;20368;-54
2022/09/30 04:24:15;;;;;;;28.10;21.58;;;9.60;99.90;;;;;;5050164;28;20043;-53
2022/09/30 04:26:40;;;;;;;24.10;19.85;;;9.60;99.90;;;;;;5051415;28;20021;-53
2022/09/30 04:29:06;;;;;;;24.50;19.48;;;9.70;99.90;;;;;;5050987;28;20024;-51
2022/09/30 04:31:31;;;;;;;26.85;19.65;;;9.70;99.90;;;;;;5051364;28;20123;-53
2022/09/30 04:33:57;;;;;;;26.70;18.95;;;9.80;99.90;;;;;;5049961;28;20060;-55
2022/09/30 04:36:23;;;;;;;23.90;17.30;;;9.70;99.90;;;;;;5051302;28;20172;-52
2022/09/30 04:38:49;;;;;;;22.70;18.10;;;9.70;99.90;;;;;;5051140;28;20029;-54
2022/09/30 04:41:16;;;;;;;25.42;17.48;;;9.70;99.90;;;;;;5051428;28;20066;-52
2022/09/30 04:43:46;;;;;;;27.02;18.85;;;9.70;99.90;;;;;;5051389;28;20594;-53
2022/09/30 04:46:18;;;;;;;26.10;18.33;;;9.70;99.90;;;;;;5051409;28;20452;-52
2022/09/30 04:48:45;;;;;;;22.73;18.90;;;9.70;99.90;;;;;;5051096;28;20029;-51
2022/09/30 04:51:48;;;;;;;24.05;17.30;;;9.70;99.90;;;;;;5066645;28;20395;-54
2022/09/30 04:54:15;;;;;;;17.42;15.02;;;9.80;99.90;;;;;;5071143;28;20029;-51
2022/09/30 04:56:41;;;;;;;19.88;16.00;;;9.70;99.90;;;;;;5071286;28;20156;-52
2022/09/30 04:59:07;;;;;;;18.10;15.07;;;9.70;99.90;;;;;;5070404;28;20029;-53
2022/09/30 05:01:32;;;;;;;19.25;14.82;;;9.70;99.90;;;;;;5071275;28;20120;-52
2022/09/30 05:03:58;;;;;;;25.85;19.20;;;9.60;99.90;;;;;;5071066;28;20368;-51
2022/09/30 05:06:24;;;;;;;21.38;17.08;;;9.60;99.90;;;;;;5070978;28;20020;-52
2022/09/30 05:08:49;;;;;;;18.55;15.65;;;9.60;99.90;;;;;;5071115;28;20078;-52
2022/09/30 05:11:17;;;;;;;19.38;15.50;;;9.60;99.90;;;;;;5074909;28;20067;-52
2022/09/30 05:13:43;;;;;;;21.85;15.82;;;9.60;99.90;;;;;;5062007;28;20029;-52
2022/09/30 05:16:10;;;;;;;18.92;15.48;;;9.60;99.90;;;;;;5054614;28;20392;-53
2022/09/30 05:18:36;;;;;;;20.17;16.60;;;9.60;99.90;;;;;;5054801;28;20482;-52
2022/09/30 05:21:03;;;;;;;23.35;17.98;;;9.50;99.90;;;;;;5055516;28;20037;-51
2022/09/30 05:23:30;;;;;;;26.10;18.92;;;9.50;99.90;;;;;;5054530;28;20024;-52
2022/09/30 05:25:56;;;;;;;26.17;17.05;;;9.40;99.90;;;;;;5054295;28;20036;-53
2022/09/30 05:28:22;;;;;;;26.20;16.45;;;9.40;99.90;;;;;;5053337;28;20032;-54
2022/09/30 05:30:53;;;;;;;17.80;14.50;;;9.40;99.90;;;;;;5054303;28;20036;-53
2022/09/30 05:33:18;;;;;;;22.48;15.68;;;9.50;99.90;;;;;;5054470;28;20116;-51
2022/09/30 05:35:44;;;;;;;17.77;15.70;;;9.50;99.90;;;;;;5063375;28;20165;-52
2022/09/30 05:38:10;;;;;;;19.30;14.50;;;9.50;99.90;;;;;;5074087;28;20052;-52
2022/09/30 05:40:39;;;;;;;21.08;14.45;;;9.50;99.90;;;;;;5074439;28;20460;-51
2022/09/30 05:43:05;;;;;;;18.23;13.88;;;9.60;99.90;;;;;;5074318;28;20112;-51
2022/09/30 05:45:31;;;;;;;17.27;14.60;;;9.50;99.90;;;;;;5072770;28;20052;-52
2022/09/30 05:47:56;;;;;;;25.35;15.63;;;9.50;99.90;;;;;;5074061;28;20109;-53
2022/09/30 05:50:23;;;;;;;21.83;15.10;;;9.50;99.90;;;;;;5073875;28;20020;-55
2022/09/30 05:52:50;;;;;;;21.63;15.23;;;9.50;99.90;;;;;;5074024;28;20056;-53
2022/09/30 05:55:17;;;;;;;19.25;15.50;;;9.50;99.90;;;;;;5074021;28;20079;-51
2022/09/30 05:57:46;;;;;;;21.30;15.10;;;9.60;99.90;;;;;;5073849;28;20406;-52
2022/09/30 06:00:12;;;;;;;25.48;15.90;;;9.60;99.90;;;;;;5073831;28;20116;-52
2022/09/30 06:02:38;;;;;;;27.25;17.45;;;9.60;99.90;;;;;;5073639;28;20104;-54
2022/09/30 06:05:05;;;;;;;22.52;14.52;;;9.60;99.90;;;;;;5065205;28;20021;-51
2022/09/30 06:07:33;;;;;;;16.48;14.25;;;9.60;99.90;;;;;;5053628;28;20514;-54
2022/09/30 06:09:59;;;;;;;18.10;13.65;;;9.70;99.90;;;;;;5053202;28;20021;-51
2022/09/30 06:12:27;;;;;;;15.93;12.90;;;9.80;99.90;;;;;;5053707;28;20045;-53
2022/09/30 06:14:54;;;;;;;14.18;12.02;;;9.80;99.90;;;;;;5053455;28;20104;-51
2022/09/30 06:17:21;;;;;;;13.48;12.07;;;10.00;99.90;;;;;;5053679;28;20036;-52
2022/09/30 06:19:48;;;;;;;13.63;10.88;;;10.10;99.90;;;;;;5052797;28;20504;-51
2022/09/30 06:22:15;;;;;;;13.40;10.68;;;10.20;99.90;;;;;;5053294;28;20135;-52
2022/09/30 06:24:41;;;;;;;14.00;10.82;;;10.30;99.90;;;;;;5053469;28;20495;-51
2022/09/30 06:27:07;;;;;;;12.18;10.93;;;10.30;99.90;;;;;;5056980;28;20031;-52
2022/09/30 06:29:32;;;;;;;11.05;9.88;;;10.30;99.90;;;;;;5073391;28;20036;-51
2022/09/30 06:31:58;;;;;;;13.18;10.90;;;10.40;99.90;;;;;;5073161;28;20234;-51
2022/09/30 06:34:24;;;;;;;11.45;9.95;;;10.40;99.90;;;;;;5073156;28;20028;-52
2022/09/30 06:36:49;;;;;;;15.60;9.15;;;10.40;99.90;;;;;;5073158;28;20081;-53
2022/09/30 06:39:15;;;;;;;11.75;9.57;;;10.40;99.90;;;;;;5073130;28;20636;-54
2022/09/30 06:41:42;;;;;;;11.20;10.00;;;10.30;99.90;;;;;;5070433;28;20033;-52
2022/09/30 06:44:08;;;;;;;16.25;9.73;;;10.30;99.90;;;;;;5053194;28;20376;-55
2022/09/30 06:46:34;;;;;;;14.35;10.15;;;10.30;99.90;;;;;;5053023;28;20025;-53
2022/09/30 06:49:00;;;;;;;11.13;9.88;;;10.40;99.90;;;;;;5052748;28;20468;-52
2022/09/30 06:51:26;;;;;;;12.32;10.45;;;10.40;99.90;;;;;;5052990;28;20495;-56
2022/09/30 06:53:52;;;;;;;12.32;10.40;;;10.30;99.90;;;;;;5052767;28;20103;-54
2022/09/30 06:56:18;;;;;;;11.82;10.63;;;10.40;99.90;;;;;;5054233;28;20032;-52
2022/09/30 06:58:44;;;;;;;14.13;10.98;;;10.40;99.90;;;;;;5072034;28;20024;-55
2022/09/30 07:01:14;;;;;;;18.05;11.75;;;10.40;99.90;;;;;;5072674;28;20021;-57
2022/09/30 07:03:43;;;;;;;14.43;11.90;;;10.40;99.90;;;;;;5071476;28;20119;-52
2022/09/30 07:06:10;;;;;;;17.08;12.80;;;10.40;99.90;;;;;;5072271;28;20028;-52
2022/09/30 07:08:37;;;;;;;16.40;11.10;;;10.60;99.90;;;;;;5071273;28;20059;-52
2022/09/30 07:11:15;;;;;;;13.85;11.57;;;10.60;99.90;;;;;;5072477;28;20479;-53
2022/09/30 07:13:44;;;;;;;12.77;10.98;;;10.70;99.90;;;;;;5065590;28;20395;-52
2022/09/30 07:16:14;;;;;;;14.35;11.85;;;10.80;99.90;;;;;;5050960;28;20079;-51
2022/09/30 07:18:44;;;;;;;15.68;11.20;;;10.70;99.90;;;;;;5050850;28;20035;-52
2022/09/30 07:21:14;;;;;;;16.88;12.30;;;10.80;99.90;;;;;;5052222;28;20380;-56
2022/09/30 07:23:47;;;;;;;14.65;13.13;;;11.00;99.90;;;;;;5052482;28;20023;-53
2022/09/30 07:26:17;;;;;;;15.82;11.75;;;11.10;99.90;;;;;;5051261;28;20453;-54
2022/09/30 07:28:43;;;;;;;17.63;13.23;;;11.10;99.90;;;;;;5071846;28;20036;-54
2022/09/30 07:31:14;;;;;;;13.88;12.13;;;11.20;99.90;;;;;;5071759;28;20523;-53
2022/09/30 07:33:40;;;;;;;15.65;12.30;;;11.10;99.90;;;;;;5071941;28;20154;-52
2022/09/30 07:36:07;;;;;;;16.60;11.50;;;11.20;99.90;;;;;;5071666;28;20032;-54
2022/09/30 07:38:35;;;;;;;13.98;10.82;;;11.30;99.90;;;;;;5070925;28;20025;-55
2022/09/30 07:41:25;;;;;;;12.98;11.38;;;11.40;99.90;;;;;;5070777;28;20028;-55
2022/09/30 07:43:54;;;;;;;12.05;10.10;;;11.40;99.90;;;;;;5070666;28;20095;-52
2022/09/30 07:46:24;;;;;;;12.18;9.77;;;11.60;99.90;;;;;;5070597;28;20021;-55
2022/09/30 07:48:51;;;;;;;10.27;8.77;;;11.70;99.90;;;;;;5071205;28;20116;-52
2022/09/30 07:51:18;;;;;;;9.70;8.75;;;11.90;99.90;;;;;;5071723;28;20028;-55
2022/09/30 07:53:48;;;;;;;10.57;7.32;;;11.80;99.90;;;;;;5071680;28;20086;-52
2022/09/30 07:56:15;;;;;;;9.07;7.78;;;11.90;99.90;;;;;;5071075;28;20024;-53
2022/09/30 07:58:41;;;;;;;10.70;8.32;;;11.80;99.90;;;;;;5051578;28;20029;-52
2022/09/30 08:01:07;;;;;;;6.40;5.78;;;12.00;99.90;;;;;;5051694;28;20017;-52
2022/09/30 08:03:38;;;;;;;6.68;5.38;;;12.10;99.90;;;;;;5051354;28;20421;-55
2022/09/30 08:06:16;;;;;;;5.63;4.78;;;12.10;99.90;;;;;;5051296;28;20252;-54
2022/09/30 08:08:43;;;;;;;2.85;2.65;;;12.40;99.90;;;;;;5051420;28;20041;-55
2022/09/30 08:11:09;;;;;;;7.93;3.97;;;12.70;99.90;;;;;;5051576;28;20029;-53
2022/09/30 08:13:35;;;;;;;5.15;3.65;;;12.90;99.90;;;;;;5051678;28;20028;-54
2022/09/30 08:16:02;;;;;;;4.70;3.97;;;13.10;99.90;;;;;;5051251;28;20557;-52
2022/09/30 08:18:28;;;;;;;8.30;4.55;;;13.00;99.90;;;;;;5050991;28;20029;-52
2022/09/30 08:20:54;;;;;;;4.30;3.90;;;12.80;99.90;;;;;;5050198;28;20527;-52
2022/09/30 08:23:20;;;;;;;10.38;4.30;;;12.90;99.90;;;;;;5048770;28;20029;-53
2022/09/30 08:25:46;;;;;;;8.55;7.25;;;12.90;99.90;;;;;;5050142;28;20064;-53
2022/09/30 08:28:12;;;;;;;10.65;6.82;;;12.90;99.90;;;;;;5066499;28;20017;-52
2022/09/30 08:30:39;;;;;;;4.55;4.10;;;12.90;99.90;;;;;;5070469;28;20021;-54
2022/09/30 08:33:05;;;;;;;6.53;5.63;;;12.80;99.90;;;;;;5068598;28;20502;-55
2022/09/30 08:35:30;;;;;;;16.08;7.88;;;13.10;99.90;;;;;;5070243;28;20044;-52
2022/09/30 08:37:56;;;;;;;12.98;6.32;;;13.10;99.90;;;;;;5069868;28;20025;-55
2022/09/30 08:40:27;;;;;;;7.18;6.10;;;13.20;99.90;;;;;;5070033;28;20450;-56
2022/09/30 08:43:14;;;;;;;5.90;4.55;;;13.20;99.90;;;;;;5054524;28;20021;-56
2022/09/30 08:45:51;;;;;;;9.35;7.50;;;13.10;99.90;;;;;;5054150;28;20064;-53
2022/09/30 08:48:23;;;;;;;13.70;11.10;;;13.10;99.90;;;;;;5054135;28;20020;-55
2022/09/30 08:51:07;;;;;;;7.97;7.03;;;12.90;99.90;;;;;;5054007;28;20543;-55
2022/09/30 08:53:38;;;;;;;7.05;6.35;;;12.50;99.90;;;;;;5054157;28;20029;-53
2022/09/30 08:56:05;;;;;;;14.05;10.93;;;12.40;99.90;;;;;;5054120;28;20305;-53
2022/09/30 08:58:43;;;;;;;12.15;10.27;;;12.40;99.90;;;;;;5053873;28;20115;-53
2022/09/30 09:01:27;;;;;;;30.08;9.25;;;12.50;99.90;;;;;;5053833;28;20033;-54
2022/09/30 09:03:53;;;;;;;8.23;5.95;;;12.40;99.90;;;;;;5053695;28;20100;-53
2022/09/30 09:06:38;;;;;;;8.68;6.10;;;12.30;99.90;;;;;;5053752;28;20012;-52
2022/09/30 09:09:28;;;;;;;8.00;7.05;;;12.30;99.90;;;;;;5053232;28;20045;-54
2022/09/30 09:12:18;;;;;;;8.70;7.07;;;12.30;99.90;;;;;;5053554;28;20021;-51
2022/09/30 09:14:55;;;;;;;9.73;6.70;;;12.30;99.90;;;;;;5053675;28;20029;-56
2022/09/30 09:17:30;;;;;;;13.35;7.05;;;12.30;99.90;;;;;;5053774;28;20021;-55
2022/09/30 09:20:19;;;;;;;8.77;7.78;;;12.40;99.90;;;;;;5067804;28;20067;-53
2022/09/30 09:22:47;;;;;;;6.82;6.05;;;12.40;99.90;;;;;;5072574;28;20033;-53
2022/09/30 09:25:15;;;;;;;18.27;8.45;;;12.40;99.90;;;;;;5073006;28;20029;-53
2022/09/30 09:27:54;;;;;;;6.28;5.43;;;12.40;99.90;;;;;;5073318;28;20112;-52
2022/09/30 09:30:25;;;;;;;16.90;13.25;;;12.50;99.90;;;;;;5073059;28;20123;-54
2022/09/30 09:32:56;;;;;;;8.98;8.13;;;12.50;99.90;;;;;;5064428;28;20077;-55
2022/09/30 09:35:30;;;;;;;6.13;5.53;;;12.50;99.90;;;;;;5053240;28;20438;-56
2022/09/30 09:40:59;;;;;;;7.75;6.88;;;12.90;99.90;;;;;;5070397;28;20033;-55
2022/09/30 09:43:50;;;;;;;5.55;5.05;;;13.10;99.90;;;;;;5054242;28;20037;-54
2022/09/30 09:46:37;;;;;;;7.45;4.05;;;13.30;99.90;;;;;;5032007;28;20045;-52
2022/09/30 09:49:31;;;;;;;5.32;3.97;;;13.50;99.90;;;;;;5057663;28;20036;-56
2022/09/30 09:52:06;;;;;;;;;;;14.10;99.90;;;;;;5042198;28;20043;-54
2022/09/30 09:54:36;;;;;;;4.68;3.42;;;14.20;99.90;;;;;;5047436;28;19947;-52
2022/09/30 09:57:14;;;;;;;3.88;3.50;;;14.60;99.90;;;;;;5042930;28;20029;-52
2022/09/30 10:01:07;;;;;;;3.40;3.10;;;14.60;99.90;;;;;;5039697;28;20037;-53
2022/09/30 10:03:03;;;;;;;4.22;3.65;;;14.30;99.90;;;;;;5043783;28;20111;-55
2022/09/30 10:05:38;;;;;;;5.28;4.30;;;14.60;99.90;;;;;;5057970;28;20151;-56
2022/09/30 10:08:20;;;;;;;5.47;3.97;;;14.90;99.90;;;;;;5061906;28;20419;-53
2022/09/30 10:10:46;;;;;;;4.53;3.67;;;15.30;99.90;;;;;;5062516;28;20024;-55
2022/09/30 10:13:17;;;;;;;5.78;3.28;;;15.80;99.90;;;;;;5046828;28;20457;-55
2022/09/30 10:15:43;;;;;;;3.20;2.88;;;16.30;99.90;;;;;;5042768;28;20025;-52
2022/09/30 10:18:16;;;;;;;3.75;3.45;;;16.40;99.90;;;;;;5041262;28;20522;-53
2022/09/30 10:20:50;;;;;;;5.22;4.60;;;16.50;99.90;;;;;;5050400;28;20036;-52
2022/09/30 10:23:25;;;;;;;4.13;3.58;;;16.40;99.90;;;;;;5052115;28;20029;-52
2022/09/30 10:26:02;;;;;;;5.38;4.55;;;16.20;99.90;;;;;;5053213;28;20460;-52
2022/09/30 10:28:31;;;;;;;6.72;3.45;;;15.80;99.90;;;;;;5053536;28;20040;-52
2022/09/30 10:31:06;;;;;;;4.57;4.15;;;15.60;99.90;;;;;;5053140;28;20025;-57
2022/09/30 10:33:45;;;;;;;7.43;4.50;;;15.40;99.90;;;;;;5070834;28;20031;-56
2022/09/30 10:36:17;;;;;;;8.98;4.90;;;14.90;99.90;;;;;;5071807;28;20384;-57
2022/09/30 10:39:07;;;;;;;5.57;4.30;;;14.90;99.90;;;;;;5072886;28;20034;-55
2022/09/30 10:41:35;;;;;;;10.05;4.38;;;15.10;99.90;;;;;;5073011;28;20017;-56
2022/09/30 10:44:05;;;;;;;7.68;4.13;;;15.40;99.90;;;;;;5072931;28;20028;-55
2022/09/30 10:46:42;;;;;;;13.38;3.92;;;15.70;99.90;;;;;;5071823;28;20019;-52
2022/09/30 10:49:25;;;;;;;11.45;4.35;;;16.00;99.90;;;;;;5039082;28;20033;-52
2022/09/30 10:51:51;;;;;;;4.88;3.95;;;15.90;99.90;;;;;;5039831;28;20443;-56
2022/09/30 10:54:49;;;;;;;4.30;3.38;;;16.00;99.90;;;;;;5040579;28;20116;-55
2022/09/30 10:57:25;;;;;;;3.33;3.03;;;16.50;99.90;;;;;;5040939;28;20048;-56
2022/09/30 11:00:14;;;;;;;5.32;2.78;;;17.10;99.90;;;;;;5041369;28;20092;-54
2022/09/30 11:02:55;;;;;;;3.47;2.78;;;17.30;99.40;;;;;;5041606;28;20067;-56
2022/09/30 11:05:23;;;;;;;3.35;2.85;;;17.20;99.90;;;;;;5043082;28;20071;-54
2022/09/30 11:07:59;;;;;;;3.00;2.53;;;17.40;99.10;;;;;;5041455;28;20090;-53
2022/09/30 11:10:51;;;;;;;4.70;2.70;;;18.20;98.80;;;;;;5049030;28;20048;-53
2022/09/30 11:13:35;;;;;;;2.47;1.98;;;17.80;97.40;;;;;;5048837;28;20032;-52
2022/09/30 11:16:04;;;;;;;;;;;18.80;96.00;;;;;;5049543;28;20157;-55
2022/09/30 11:18:52;;;;;;;2.92;2.00;;;19.60;94.60;;;;;;5048948;28;19912;-56
2022/09/30 11:21:25;;;;;;;3.60;1.70;;;19.90;93.70;;;;;;5049246;28;20491;-54
2022/09/30 11:24:04;;;;;;;1.75;1.65;;;20.60;91.90;;;;;;5048938;28;20051;-56
2022/09/30 11:26:57;;;;;;;2.17;1.95;;;20.90;90.90;;;;;;5048927;28;20468;-55
2022/09/30 11:29:41;;;;;;;2.33;1.83;;;20.80;91.20;;;;;;5048918;28;20021;-55
2022/09/30 11:32:40;;;;;;;3.40;2.28;;;21.20;91.00;;;;;;5048546;28;20039;-56
2022/09/30 11:35:26;;;;;;;3.70;2.15;;;21.00;90.00;;;;;;5048208;28;20033;-56
2022/09/30 11:38:22;;;;;;;4.93;2.13;;;20.40;90.60;;;;;;5063687;28;20379;-56
2022/09/30 11:41:02;;;;;;;5.15;1.67;;;20.00;91.60;;;;;;5067982;28;20048;-55
2022/09/30 11:43:50;;;;;;;5.68;2.40;;;19.70;92.60;;;;;;5068132;28;20025;-56
2022/09/30 11:46:19;;;;;;;2.10;1.90;;;18.70;92.50;;;;;;5067504;28;20077;-56
2022/09/30 11:49:09;;;;;;;3.25;2.60;;;18.10;93.20;;;;;;5067182;28;20021;-55
2022/09/30 11:51:46;;;;;;;3.60;2.75;;;17.60;95.20;;;;;;5070297;28;20433;-54
2022/09/30 11:54:30;;;;;;;2.50;2.20;;;17.30;94.90;;;;;;5071854;28;20113;-55
2022/09/30 11:57:05;;;;;;;2.47;2.20;;;17.00;95.60;;;;;;5070285;28;20032;-54
2022/09/30 11:59:50;;;;;;;3.95;2.75;;;16.70;96.30;;;;;;5071338;28;20031;-53
2022/09/30 12:02:37;;;;;;;3.35;2.08;;;16.70;96.20;;;;;;5069953;28;20029;-54
2022/09/30 12:05:38;;;;;;;4.90;2.88;;;16.80;96.90;;;;;;5070052;28;20024;-53
2022/09/30 12:08:23;;;;;;;4.03;1.95;;;17.00;96.40;;;;;;5069748;28;20037;-54
2022/09/30 12:10:55;;;;;;;7.15;2.20;;;17.10;95.60;;;;;;5070397;28;20029;-52
2022/09/30 12:13:28;;;;;;;95.90;57.80;;;17.00;96.30;;;;;;5070442;28;20013;-54
2022/09/30 12:15:57;;;;;;;4.50;3.20;;;17.00;96.60;;;;;;5057131;28;20531;-54
2022/09/30 12:18:41;;;;;;;2.35;2.08;;;17.20;96.00;;;;;;5049935;28;20092;-52
2022/09/30 12:21:22;;;;;;;2.95;2.35;;;17.70;95.90;;;;;;5050331;28;20528;-54
2022/09/30 12:23:56;;;;;;;2.08;1.60;;;18.30;93.70;;;;;;5049736;28;20369;-55
2022/09/30 12:26:23;;;;;;;11.18;1.83;;;18.50;92.60;;;;;;5049041;28;20033;-55
2022/09/30 12:32:08;;;;;;;2.60;2.25;;;18.10;93.70;;;;;;5050370;28;20131;-53
2022/09/30 12:35:08;;;;;;;3.70;2.35;;;17.90;93.80;;;;;;5050365;28;20099;-53
2022/09/30 12:37:53;;;;;;;2.40;1.88;;;17.60;94.10;;;;;;5050263;28;20025;-53
2022/09/30 12:40:24;;;;;;;2.55;1.92;;;17.60;94.90;;;;;;5050359;28;20056;-55
2022/09/30 12:43:22;;;;;;;3.10;2.15;;;18.00;94.70;;;;;;5050082;28;20794;-56
2022/09/30 12:46:13;;;;;;;2.50;1.90;;;18.40;94.00;;;;;;5050085;28;20033;-55
2022/09/30 12:49:08;;;;;;;1.60;1.50;;;18.70;93.30;;;;;;5054319;28;20090;-54
2022/09/30 12:51:37;;;;;;;1.80;1.40;;;18.50;92.30;;;;;;5069707;28;20054;-53
2022/09/30 12:54:15;;;;;;;2.30;2.10;;;18.90;93.10;;;;;;5070102;28;20050;-54
2022/09/30 12:56:47;;;;;;;3.45;1.80;;;20.00;91.40;;;;;;5070240;28;20475;-56
2022/09/30 12:59:14;;;;;;;1.55;1.45;;;20.30;90.40;;;;;;5069680;28;20040;-56
2022/09/30 13:01:41;;;;;;;1.75;1.65;;;20.10;90.20;;;;;;5066656;28;20024;-53
2022/09/30 13:04:07;;;;;;;7.03;2.15;;;19.70;90.60;;;;;;5057367;28;20112;-54
2022/09/30 13:06:47;;;;;;;3.58;1.98;;;19.40;90.80;;;;;;5050102;28;20025;-55
2022/09/30 13:09:16;;;;;;;2.10;1.90;;;18.90;92.20;;;;;;5050061;28;20384;-55
2022/09/30 13:11:43;;;;;;;1.60;1.50;;;18.80;91.30;;;;;;5059815;28;20072;-54
2022/09/30 13:14:29;;;;;;;2.70;1.80;;;18.30;91.20;;;;;;5055492;28;20056;-52
2022/09/30 13:17:07;;;;;;;1.77;1.48;;;18.10;92.00;;;;;;5049708;28;20096;-56
2022/09/30 13:19:50;;;;;;;2.15;1.75;;;17.80;93.30;;;;;;5049875;28;20048;-54